Time;durP1;ratioP1;P1;durP2;ratioP2;P2;SDS_P1;SDS_P2;PMS_P1;PMS_P2;Temp;Humidity;BMP_temperature;BMP_pressure;BME280_temperature;BME280_humidity;BME280_pressure;Samples;Min_cycle;Max_cycle;Signal;HPM_P1;HPM_P2
2023/12/14 00:01:58;;;;;;;213.23;141.27;;;19.40;71.20;;;;;;4904060;29;20034;-66
2023/12/14 00:04:24;;;;;;;214.40;139.57;;;19.40;71.30;;;;;;4902742;29;20032;-66
2023/12/14 00:06:49;;;;;;;211.43;138.63;;;19.40;71.20;;;;;;4900506;29;20621;-67
2023/12/14 00:09:15;;;;;;;226.38;148.68;;;19.40;71.40;;;;;;4900853;29;20033;-65
2023/12/14 00:11:41;;;;;;;212.18;140.20;;;19.40;71.40;;;;;;4903377;29;20028;-67
2023/12/14 00:14:06;;;;;;;212.38;140.55;;;19.40;71.30;;;;;;4904005;29;20043;-66
2023/12/14 00:16:32;;;;;;;212.50;139.68;;;19.40;71.40;;;;;;4904775;29;20025;-64
2023/12/14 00:18:57;;;;;;;224.50;148.07;;;19.40;71.40;;;;;;4900653;29;20029;-66
2023/12/14 00:21:23;;;;;;;202.98;134.40;;;19.40;71.50;;;;;;4900976;29;20644;-66
2023/12/14 00:23:49;;;;;;;210.00;138.55;;;19.40;71.40;;;;;;4903367;29;20106;-64
2023/12/14 00:26:16;;;;;;;205.50;133.77;;;19.40;71.70;;;;;;4903374;29;20369;-66
2023/12/14 00:28:42;;;;;;;199.70;130.35;;;19.40;71.60;;;;;;4900859;29;20473;-66
2023/12/14 00:31:07;;;;;;;198.90;126.90;;;19.50;72.00;;;;;;4900469;29;20060;-65
2023/12/14 00:33:33;;;;;;;204.43;127.85;;;19.50;71.70;;;;;;4902321;29;20079;-65
2023/12/14 00:35:59;;;;;;;239.00;152.05;;;19.50;72.20;;;;;;4902809;29;20467;-65
2023/12/14 00:38:24;;;;;;;231.40;151.00;;;19.50;71.70;;;;;;4902598;29;20021;-65
2023/12/14 00:40:50;;;;;;;253.75;165.30;;;19.50;71.80;;;;;;4909577;29;20405;-65
2023/12/14 00:43:15;;;;;;;255.65;166.10;;;19.60;71.40;;;;;;4900390;29;20037;-64
2023/12/14 00:45:41;;;;;;;244.23;161.27;;;19.50;71.50;;;;;;4902352;28;20428;-66
2023/12/14 00:48:07;;;;;;;237.55;152.07;;;19.50;71.50;;;;;;4905547;29;20028;-65
2023/12/14 00:50:32;;;;;;;242.73;153.63;;;19.50;71.70;;;;;;4904688;29;20032;-65
2023/12/14 00:52:58;;;;;;;231.52;150.90;;;19.50;71.70;;;;;;4907556;29;20051;-66
2023/12/14 00:55:24;;;;;;;251.23;163.40;;;19.50;71.80;;;;;;4905950;29;20515;-66
2023/12/14 00:57:49;;;;;;;250.68;165.80;;;19.50;71.40;;;;;;4906777;29;20032;-65
2023/12/14 01:00:15;;;;;;;245.45;163.73;;;19.50;71.40;;;;;;4906650;29;20550;-67
2023/12/14 01:02:41;;;;;;;244.50;162.65;;;19.50;71.40;;;;;;4902251;29;20028;-66
2023/12/14 01:05:07;;;;;;;226.25;148.02;;;19.50;71.50;;;;;;4908843;29;20435;-65
2023/12/14 01:07:33;;;;;;;232.60;153.02;;;19.50;72.00;;;;;;4898875;29;20047;-65
2023/12/14 01:09:58;;;;;;;237.50;154.13;;;19.60;71.70;;;;;;4906632;29;20396;-66
2023/12/14 01:12:24;;;;;;;225.27;147.57;;;19.50;71.60;;;;;;4906033;29;20032;-65
2023/12/14 01:14:49;;;;;;;228.48;150.77;;;19.50;71.80;;;;;;4909486;29;20036;-65
2023/12/14 01:17:15;;;;;;;206.23;136.75;;;19.50;71.70;;;;;;4908448;29;20077;-63
2023/12/14 01:19:41;;;;;;;217.43;143.07;;;19.60;71.90;;;;;;4909747;29;20110;-63
2023/12/14 01:22:07;;;;;;;221.65;141.10;;;19.60;72.00;;;;;;4907319;29;20047;-65
2023/12/14 01:24:32;;;;;;;212.70;140.75;;;19.60;71.90;;;;;;4907398;29;20035;-65
2023/12/14 01:26:58;;;;;;;225.60;147.95;;;19.50;71.90;;;;;;4905104;29;20025;-66
2023/12/14 01:29:23;;;;;;;222.80;147.57;;;19.60;71.90;;;;;;4905462;29;20103;-66
2023/12/14 01:31:49;;;;;;;212.80;139.88;;;19.60;71.70;;;;;;4908053;29;20079;-65
2023/12/14 01:34:15;;;;;;;209.38;138.50;;;19.60;71.80;;;;;;4908883;29;20031;-67
2023/12/14 01:36:41;;;;;;;197.95;129.05;;;19.60;72.00;;;;;;4902655;29;20031;-66
2023/12/14 01:39:07;;;;;;;220.15;145.27;;;19.60;72.10;;;;;;4900143;29;20056;-66
2023/12/14 01:41:33;;;;;;;203.35;136.88;;;19.60;71.90;;;;;;4898286;29;20120;-67
2023/12/14 01:43:58;;;;;;;195.80;129.70;;;19.60;72.00;;;;;;4905817;29;20108;-67
2023/12/14 01:46:24;;;;;;;181.65;123.57;;;19.60;71.90;;;;;;4904915;29;20074;-64
2023/12/14 01:48:51;;;;;;;199.45;130.80;;;19.60;72.10;;;;;;4903137;29;20033;-64
2023/12/14 01:51:17;;;;;;;201.32;126.30;;;19.60;72.10;;;;;;4906186;29;20070;-65
2023/12/14 01:53:43;;;;;;;212.80;137.18;;;19.60;72.10;;;;;;4912534;29;20493;-65
2023/12/14 01:56:09;;;;;;;185.68;124.25;;;19.60;71.80;;;;;;4905303;29;20048;-66
2023/12/14 01:58:35;;;;;;;184.15;121.03;;;19.60;72.00;;;;;;4903796;29;20102;-64
2023/12/14 02:01:19;;;;;;;194.20;124.97;;;19.60;72.10;;;;;;4899847;29;20032;-66
2023/12/14 02:03:46;;;;;;;184.85;123.57;;;19.60;72.00;;;;;;4902335;29;20032;-64
2023/12/14 02:06:11;;;;;;;187.65;125.25;;;19.60;71.90;;;;;;4900847;29;20019;-67
2023/12/14 02:08:37;;;;;;;175.13;119.03;;;19.60;72.00;;;;;;4903333;29;20024;-67
2023/12/14 02:11:03;;;;;;;183.95;123.28;;;19.60;72.20;;;;;;4902012;29;20051;-66
2023/12/14 02:13:28;;;;;;;188.13;127.32;;;19.60;72.00;;;;;;4903539;29;20032;-66
2023/12/14 02:15:54;;;;;;;192.35;117.50;;;19.60;71.80;;;;;;4904790;29;20032;-64
2023/12/14 02:18:19;;;;;;;198.40;133.25;;;19.50;72.10;;;;;;4905649;29;20400;-63
2023/12/14 02:20:45;;;;;;;173.20;115.85;;;19.60;71.80;;;;;;4902148;29;20396;-64
2023/12/14 02:23:11;;;;;;;170.15;115.82;;;19.60;72.00;;;;;;4904525;29;20091;-65
2023/12/14 02:25:36;;;;;;;162.40;108.18;;;19.60;72.10;;;;;;4904588;29;20039;-65
2023/12/14 02:28:02;;;;;;;170.80;112.53;;;19.60;72.30;;;;;;4899881;29;20027;-65
2023/12/14 02:30:27;;;;;;;159.23;105.63;;;19.50;72.20;;;;;;4901915;29;20027;-65
2023/12/14 02:32:53;;;;;;;159.55;108.22;;;19.60;72.40;;;;;;4898460;29;20044;-64
2023/12/14 02:35:19;;;;;;;154.38;104.13;;;19.60;72.40;;;;;;4897047;29;20112;-65
2023/12/14 02:37:44;;;;;;;183.70;118.80;;;19.60;72.50;;;;;;4905065;28;20062;-64
2023/12/14 02:40:10;;;;;;;180.45;119.18;;;19.60;72.20;;;;;;4905222;29;20035;-65
2023/12/14 02:42:36;;;;;;;157.00;107.05;;;19.60;72.20;;;;;;4902857;29;20030;-65
2023/12/14 02:45:03;;;;;;;158.45;106.15;;;19.60;72.40;;;;;;4901212;29;20039;-65
2023/12/14 02:47:29;;;;;;;150.15;100.53;;;19.60;72.30;;;;;;4902987;29;20502;-66
2023/12/14 02:49:55;;;;;;;152.50;104.95;;;19.60;72.70;;;;;;4904919;28;20051;-65
2023/12/14 02:52:21;;;;;;;158.40;102.47;;;19.60;72.60;;;;;;4904541;29;20024;-67
2023/12/14 02:54:47;;;;;;;144.55;96.53;;;19.60;72.40;;;;;;4908249;29;20031;-66
2023/12/14 02:57:12;;;;;;;141.45;95.45;;;19.60;72.90;;;;;;4901445;29;20029;-66
2023/12/14 02:59:39;;;;;;;138.52;92.25;;;19.60;73.00;;;;;;4903994;29;20029;-66
2023/12/14 03:02:05;;;;;;;136.55;90.25;;;19.60;73.10;;;;;;4904972;29;20034;-66
2023/12/14 03:04:30;;;;;;;137.23;91.45;;;19.60;73.10;;;;;;4903021;29;20466;-66
2023/12/14 03:06:56;;;;;;;131.25;89.72;;;19.60;73.10;;;;;;4900984;29;20029;-65
2023/12/14 03:09:22;;;;;;;135.70;89.35;;;19.60;73.00;;;;;;4901471;29;20441;-66
2023/12/14 03:11:48;;;;;;;134.50;90.63;;;19.60;73.00;;;;;;4904293;28;20039;-66
2023/12/14 03:14:14;;;;;;;129.27;85.93;;;19.60;73.00;;;;;;4904433;29;20032;-63
2023/12/14 03:16:40;;;;;;;144.23;94.07;;;19.60;73.20;;;;;;4901553;29;20094;-65
2023/12/14 03:19:05;;;;;;;135.02;90.18;;;19.60;72.90;;;;;;4901428;29;20035;-66
2023/12/14 03:21:31;;;;;;;148.50;83.20;;;19.60;72.90;;;;;;4902622;29;20031;-65
2023/12/14 03:23:57;;;;;;;131.82;85.00;;;19.60;73.10;;;;;;4907560;29;20032;-66
2023/12/14 03:26:22;;;;;;;133.85;88.03;;;19.60;73.10;;;;;;4903650;29;20016;-66
2023/12/14 03:28:48;;;;;;;129.63;84.80;;;19.60;72.80;;;;;;4900910;29;20017;-65
2023/12/14 03:31:14;;;;;;;127.32;81.40;;;19.70;72.90;;;;;;4901339;29;20067;-66
2023/12/14 03:33:40;;;;;;;127.60;84.88;;;19.60;73.00;;;;;;4903544;29;20550;-64
2023/12/14 03:36:06;;;;;;;129.40;82.78;;;19.60;72.80;;;;;;4903638;29;20047;-64
2023/12/14 03:38:33;;;;;;;115.93;73.30;;;19.60;72.90;;;;;;4902822;29;20020;-65
2023/12/14 03:40:58;;;;;;;117.32;75.38;;;19.60;73.10;;;;;;4900877;29;20107;-64
2023/12/14 03:43:24;;;;;;;111.60;72.00;;;19.60;73.20;;;;;;4901377;29;20100;-65
2023/12/14 03:45:49;;;;;;;108.40;70.65;;;19.60;73.10;;;;;;4899651;29;20033;-65
2023/12/14 03:48:15;;;;;;;117.78;78.45;;;19.60;73.10;;;;;;4901068;29;20025;-65
2023/12/14 03:50:41;;;;;;;115.18;73.70;;;19.70;73.00;;;;;;4900960;29;20071;-63
2023/12/14 03:53:07;;;;;;;106.95;69.47;;;19.60;73.10;;;;;;4908385;29;20020;-65
2023/12/14 03:55:33;;;;;;;124.97;72.85;;;19.60;73.10;;;;;;4906195;29;20037;-65
2023/12/14 03:57:58;;;;;;;104.05;64.53;;;19.70;73.10;;;;;;4904221;28;20466;-65
2023/12/14 04:00:24;;;;;;;108.95;66.18;;;19.60;73.00;;;;;;4903430;29;20104;-65
2023/12/14 04:02:49;;;;;;;100.10;62.42;;;19.60;72.90;;;;;;4900648;29;20029;-64
2023/12/14 04:05:15;;;;;;;96.28;62.67;;;19.60;73.00;;;;;;4905829;29;20032;-65
2023/12/14 04:07:41;;;;;;;96.53;62.67;;;19.60;72.90;;;;;;4896071;29;20051;-66
2023/12/14 04:10:08;;;;;;;90.22;59.90;;;19.60;72.90;;;;;;4904038;29;20494;-66
2023/12/14 04:12:34;;;;;;;104.13;60.97;;;19.50;73.10;;;;;;4901812;29;20038;-66
2023/12/14 04:15:00;;;;;;;92.25;58.45;;;19.60;73.00;;;;;;4900302;29;20041;-65
2023/12/14 04:17:26;;;;;;;88.18;53.78;;;19.50;73.00;;;;;;4900282;29;20032;-64
2023/12/14 04:19:51;;;;;;;85.30;52.92;;;19.50;72.90;;;;;;4899232;29;20028;-64
2023/12/14 04:22:17;;;;;;;93.53;57.28;;;19.50;73.10;;;;;;4901019;29;20059;-64
2023/12/14 04:24:42;;;;;;;94.28;58.47;;;19.50;73.00;;;;;;4905573;29;20104;-63
2023/12/14 04:27:08;;;;;;;89.38;56.55;;;19.50;73.10;;;;;;4903530;29;20473;-64
2023/12/14 04:29:34;;;;;;;111.07;71.78;;;19.50;72.90;;;;;;4911608;29;20021;-64
2023/12/14 04:31:59;;;;;;;83.32;54.55;;;19.50;73.50;;;;;;4900945;29;20067;-67
2023/12/14 04:34:25;;;;;;;87.72;54.15;;;19.50;73.50;;;;;;4905901;29;20046;-67
2023/12/14 04:36:50;;;;;;;83.95;52.88;;;19.50;73.20;;;;;;4907130;29;20055;-66
2023/12/14 04:39:16;;;;;;;83.07;51.63;;;19.50;73.10;;;;;;4899693;29;20099;-65
2023/12/14 04:41:42;;;;;;;90.70;56.25;;;19.50;73.20;;;;;;4906065;29;20121;-66
2023/12/14 04:44:10;;;;;;;95.55;61.00;;;19.50;73.20;;;;;;4906581;29;20555;-65
2023/12/14 04:46:35;;;;;;;78.85;53.08;;;19.50;73.10;;;;;;4904227;29;20052;-66
2023/12/14 04:49:01;;;;;;;84.47;54.35;;;19.50;73.10;;;;;;4903476;29;20060;-63
2023/12/14 04:51:27;;;;;;;79.22;51.50;;;19.50;73.20;;;;;;4904238;29;20473;-66
2023/12/14 04:53:52;;;;;;;75.05;49.92;;;19.50;73.10;;;;;;4913432;29;20572;-67
2023/12/14 04:56:18;;;;;;;82.43;51.75;;;19.50;73.20;;;;;;4898469;29;20075;-67
2023/12/14 04:58:44;;;;;;;73.07;47.38;;;19.50;73.10;;;;;;4914313;28;20020;-65
2023/12/14 05:01:09;;;;;;;76.93;45.88;;;19.50;73.20;;;;;;4906467;29;20396;-66
2023/12/14 05:03:35;;;;;;;67.03;45.17;;;19.50;73.10;;;;;;4914049;29;20082;-65
2023/12/14 05:06:01;;;;;;;68.03;43.28;;;19.40;73.20;;;;;;4905542;29;20042;-65
2023/12/14 05:08:27;;;;;;;63.30;41.00;;;19.50;73.10;;;;;;4910324;29;20030;-66
2023/12/14 05:10:52;;;;;;;64.13;38.40;;;19.50;73.40;;;;;;4902452;29;20025;-64
2023/12/14 05:13:18;;;;;;;62.63;40.25;;;19.40;73.30;;;;;;4903253;29;20080;-66
2023/12/14 05:15:44;;;;;;;57.88;37.40;;;19.50;73.20;;;;;;4905769;28;20078;-66
2023/12/14 05:18:09;;;;;;;60.78;37.90;;;19.50;73.30;;;;;;4906212;29;20603;-65
2023/12/14 05:20:35;;;;;;;61.97;39.70;;;19.40;73.20;;;;;;4904240;29;20040;-66
2023/12/14 05:23:01;;;;;;;69.40;38.83;;;19.50;73.10;;;;;;4903616;29;20318;-66
2023/12/14 05:25:27;;;;;;;61.05;38.42;;;19.40;73.20;;;;;;4905179;29;20062;-65
2023/12/14 05:27:53;;;;;;;54.88;36.25;;;19.40;73.10;;;;;;4906012;29;20035;-64
2023/12/14 05:30:18;;;;;;;56.72;36.00;;;19.40;73.20;;;;;;4906006;29;20043;-66
2023/12/14 05:32:44;;;;;;;52.90;33.90;;;19.40;73.10;;;;;;4902066;29;20032;-65
2023/12/14 05:35:10;;;;;;;52.38;34.08;;;19.50;73.10;;;;;;4900252;29;20036;-65
2023/12/14 05:37:36;;;;;;;54.15;35.10;;;19.50;73.20;;;;;;4903399;29;20028;-66
2023/12/14 05:40:02;;;;;;;61.08;39.45;;;19.50;73.30;;;;;;4903351;29;20377;-65
2023/12/14 05:42:28;;;;;;;64.05;40.35;;;19.40;73.10;;;;;;4907724;29;20051;-66
2023/12/14 05:44:54;;;;;;;68.95;38.70;;;19.40;73.30;;;;;;4909745;29;20017;-66
2023/12/14 05:47:20;;;;;;;60.53;38.85;;;19.50;73.60;;;;;;4905774;29;20619;-67
2023/12/14 05:49:45;;;;;;;63.88;40.13;;;19.50;73.50;;;;;;4925907;28;20020;-65
2023/12/14 05:52:12;;;;;;;54.28;33.78;;;19.50;73.40;;;;;;4915714;29;20016;-65
2023/12/14 05:54:39;;;;;;;53.58;32.83;;;19.50;73.20;;;;;;4915060;29;20135;-65
2023/12/14 05:57:05;;;;;;;49.88;31.35;;;19.50;73.10;;;;;;4912343;29;20037;-65
2023/12/14 05:59:31;;;;;;;46.85;30.88;;;19.50;73.20;;;;;;4909968;29;20509;-65
2023/12/14 06:02:00;;;;;;;46.78;29.42;;;19.50;73.20;;;;;;4897813;29;20082;-65
2023/12/14 06:04:27;;;;;;;48.40;29.02;;;19.50;73.30;;;;;;4903487;29;20028;-65
2023/12/14 06:06:53;;;;;;;45.13;28.02;;;19.50;73.30;;;;;;4901078;29;20508;-65
2023/12/14 06:09:26;;;;;;;44.35;26.88;;;19.50;73.40;;;;;;4902434;29;20037;-65
2023/12/14 06:11:52;;;;;;;43.58;26.67;;;19.50;73.60;;;;;;4901883;29;20488;-65
2023/12/14 06:14:18;;;;;;;36.60;23.95;;;19.50;73.50;;;;;;4901462;29;20032;-64
2023/12/14 06:16:43;;;;;;;48.63;26.83;;;19.40;73.40;;;;;;4901575;29;20108;-65
2023/12/14 06:19:09;;;;;;;37.85;23.17;;;19.50;73.70;;;;;;4902210;29;20109;-65
2023/12/14 06:21:34;;;;;;;42.22;23.65;;;19.50;73.90;;;;;;4903702;29;20095;-66
2023/12/14 06:24:01;;;;;;;38.13;23.85;;;19.50;73.90;;;;;;4908428;29;20028;-65
2023/12/14 06:26:26;;;;;;;32.22;22.13;;;19.50;73.90;;;;;;4904041;29;20020;-65
2023/12/14 06:28:52;;;;;;;37.33;23.08;;;19.50;74.30;;;;;;4901682;29;20540;-64
2023/12/14 06:31:21;;;;;;;34.17;21.30;;;19.50;74.20;;;;;;4901892;29;20060;-64
2023/12/14 06:33:50;;;;;;;31.33;20.70;;;19.50;74.10;;;;;;4901961;29;20020;-64
2023/12/14 06:36:18;;;;;;;37.75;25.23;;;19.50;73.90;;;;;;4900488;29;20107;-65
2023/12/14 06:38:44;;;;;;;34.17;23.75;;;19.50;73.90;;;;;;4901784;29;20493;-65
2023/12/14 06:41:19;;;;;;;30.70;19.42;;;19.50;73.80;;;;;;4901626;29;20051;-64
2023/12/14 06:43:45;;;;;;;61.67;32.70;;;19.50;73.90;;;;;;4909130;29;20576;-66
2023/12/14 06:46:10;;;;;;;66.88;41.42;;;19.50;74.50;;;;;;4898849;28;20024;-64
2023/12/14 06:48:36;;;;;;;66.35;41.75;;;19.60;74.40;;;;;;4905137;29;20449;-63
2023/12/14 06:51:02;;;;;;;68.00;42.58;;;19.70;74.40;;;;;;4912527;29;20032;-63
2023/12/14 06:53:27;;;;;;;70.57;41.85;;;19.70;74.20;;;;;;4904364;29;20082;-63
2023/12/14 06:55:53;;;;;;;83.97;40.47;;;19.70;74.00;;;;;;4904056;29;20392;-64
2023/12/14 06:58:18;;;;;;;88.82;40.03;;;19.70;74.30;;;;;;4904219;29;20103;-60
2023/12/14 07:00:44;;;;;;;71.03;38.33;;;19.80;74.20;;;;;;4900914;29;20032;-63
2023/12/14 07:03:09;;;;;;;64.95;37.85;;;19.80;74.10;;;;;;4907495;29;20039;-64
2023/12/14 07:05:36;;;;;;;63.13;37.53;;;19.80;74.10;;;;;;4896351;29;20600;-62
2023/12/14 07:08:01;;;;;;;65.15;35.95;;;19.80;74.10;;;;;;4904068;29;20443;-66
2023/12/14 07:10:27;;;;;;;78.47;36.05;;;19.90;74.50;;;;;;4903053;29;20016;-64
2023/12/14 07:12:53;;;;;;;65.70;36.40;;;19.90;74.60;;;;;;4940091;23;20103;-62
2023/12/14 07:15:18;;;;;;;66.88;36.97;;;19.90;74.40;;;;;;4973554;28;20103;-63
2023/12/14 07:17:44;;;;;;;66.00;36.92;;;20.00;74.40;;;;;;4956518;28;20507;-63
2023/12/14 07:20:11;;;;;;;46.85;28.45;;;20.00;74.30;;;;;;4959439;28;20046;-61
2023/12/14 07:22:36;;;;;;;44.15;24.92;;;19.70;70.80;;;;;;4956645;28;20029;-60
2023/12/14 07:25:03;;;;;;;34.92;20.55;;;19.80;68.80;;;;;;4949772;28;20402;-60
2023/12/14 07:27:29;;;;;;;34.42;20.70;;;19.50;66.40;;;;;;4950354;28;20027;-63
2023/12/14 07:29:55;;;;;;;29.73;16.90;;;19.40;66.50;;;;;;4949960;28;20026;-60
2023/12/14 07:32:21;;;;;;;32.63;14.45;;;19.30;64.80;;;;;;4950050;28;20197;-63
2023/12/14 07:34:47;;;;;;;21.35;11.63;;;19.00;63.00;;;;;;4942051;28;20561;-62
2023/12/14 07:37:12;;;;;;;26.88;14.35;;;18.90;65.80;;;;;;4949872;28;20034;-63
2023/12/14 07:39:38;;;;;;;24.27;13.60;;;18.80;65.50;;;;;;4949948;28;20020;-63
2023/12/14 07:42:05;;;;;;;21.98;13.90;;;18.80;67.50;;;;;;4949899;28;20395;-60
2023/12/14 07:44:30;;;;;;;21.73;12.82;;;18.80;68.00;;;;;;4949300;28;20487;-62
2023/12/14 07:46:57;;;;;;;21.77;12.32;;;18.80;68.70;;;;;;4949551;28;20110;-62
2023/12/14 07:49:23;;;;;;;22.92;12.68;;;18.90;68.80;;;;;;4950058;28;20078;-63
2023/12/14 07:51:49;;;;;;;31.35;15.48;;;18.90;68.90;;;;;;4949545;28;20568;-64
2023/12/14 07:54:15;;;;;;;40.90;22.13;;;18.90;70.10;;;;;;4948312;28;20031;-62
2023/12/14 07:56:41;;;;;;;39.20;21.45;;;19.00;71.60;;;;;;4948876;28;20027;-64
2023/12/14 07:59:07;;;;;;;43.15;22.80;;;19.20;71.70;;;;;;4948706;28;20019;-62
2023/12/14 08:01:36;;;;;;;42.70;23.73;;;19.30;71.80;;;;;;4949693;28;20546;-62
2023/12/14 08:04:02;;;;;;;45.60;22.30;;;19.30;71.70;;;;;;4949236;28;20023;-64
2023/12/14 08:06:28;;;;;;;27.30;16.67;;;19.40;71.60;;;;;;4947639;28;20092;-64
2023/12/14 08:08:55;;;;;;;15.32;10.32;;;19.30;70.50;;;;;;4948756;28;20495;-63
2023/12/14 08:11:20;;;;;;;18.52;9.85;;;19.00;62.80;;;;;;4949053;28;20082;-63
2023/12/14 08:13:47;;;;;;;17.08;8.93;;;18.70;58.40;;;;;;4948453;28;20491;-64
2023/12/14 08:16:13;;;;;;;12.45;8.18;;;18.50;63.90;;;;;;4948414;28;20024;-64
2023/12/14 08:18:38;;;;;;;22.23;12.77;;;18.50;69.10;;;;;;4948604;28;20078;-61
2023/12/14 08:21:04;;;;;;;23.08;12.52;;;18.70;70.10;;;;;;4949435;28;20023;-62
2023/12/14 08:23:30;;;;;;;21.25;11.30;;;19.00;70.20;;;;;;4949859;28;20089;-63
2023/12/14 08:25:59;;;;;;;18.80;10.65;;;19.40;69.80;;;;;;4948669;28;20404;-63
2023/12/14 08:28:25;;;;;;;24.73;11.18;;;19.60;69.40;;;;;;4949122;28;20522;-63
2023/12/14 08:30:51;;;;;;;18.30;10.68;;;19.90;69.00;;;;;;4949074;28;20106;-63
2023/12/14 08:33:17;;;;;;;18.00;10.85;;;20.00;68.60;;;;;;4948848;28;20031;-64
2023/12/14 08:35:43;;;;;;;17.58;10.27;;;20.10;68.40;;;;;;4947908;28;20023;-64
2023/12/14 08:38:09;;;;;;;17.08;9.32;;;20.20;68.20;;;;;;4948815;28;20077;-62
2023/12/14 08:40:35;;;;;;;14.43;9.93;;;20.20;68.20;;;;;;4948407;28;20027;-62
2023/12/14 08:43:02;;;;;;;16.08;9.80;;;20.30;68.10;;;;;;4948566;28;20034;-64
2023/12/14 08:45:28;;;;;;;16.35;9.10;;;20.30;68.00;;;;;;4948419;28;20047;-63
2023/12/14 08:47:54;;;;;;;15.77;9.90;;;20.30;68.00;;;;;;4949348;28;20386;-63
2023/12/14 08:50:19;;;;;;;15.38;8.52;;;20.30;68.10;;;;;;4949267;28;20019;-63
2023/12/14 08:52:45;;;;;;;16.50;8.07;;;20.40;68.10;;;;;;4947774;28;20030;-64
2023/12/14 08:55:11;;;;;;;14.50;7.93;;;20.30;68.20;;;;;;4948983;28;20070;-65
2023/12/14 08:57:37;;;;;;;13.00;8.25;;;20.30;68.20;;;;;;4949409;28;20023;-64
2023/12/14 09:00:06;;;;;;;12.98;8.00;;;20.30;68.30;;;;;;4949263;28;20383;-64
2023/12/14 09:02:32;;;;;;;12.75;8.27;;;20.20;68.20;;;;;;4948952;28;20026;-64
2023/12/14 09:04:58;;;;;;;13.68;8.50;;;20.20;68.40;;;;;;4948607;28;20035;-65
2023/12/14 09:07:24;;;;;;;11.07;7.63;;;20.30;68.40;;;;;;4947570;28;20023;-66
2023/12/14 09:09:50;;;;;;;12.73;7.60;;;20.20;68.40;;;;;;4952267;28;20034;-64
2023/12/14 09:12:15;;;;;;;15.00;7.95;;;20.20;68.40;;;;;;4952367;28;20106;-63
2023/12/14 09:14:41;;;;;;;12.98;7.53;;;20.20;68.50;;;;;;4951755;28;20464;-61
2023/12/14 09:17:06;;;;;;;10.88;7.10;;;20.20;68.60;;;;;;4952116;28;20390;-64
2023/12/14 09:19:32;;;;;;;11.93;7.07;;;20.10;68.50;;;;;;4952179;28;20033;-63
2023/12/14 09:21:58;;;;;;;10.35;7.32;;;20.20;68.60;;;;;;4952284;28;20445;-63
2023/12/14 09:24:24;;;;;;;13.57;7.53;;;20.10;68.60;;;;;;4951819;28;20076;-64
2023/12/14 09:26:49;;;;;;;12.60;7.60;;;20.10;68.60;;;;;;4951984;28;20081;-64
2023/12/14 09:29:16;;;;;;;12.25;7.72;;;20.10;68.70;;;;;;4952367;28;20031;-64
2023/12/14 09:31:42;;;;;;;11.18;6.68;;;20.10;68.80;;;;;;4952139;28;20023;-64
2023/12/14 09:34:08;;;;;;;13.43;6.93;;;20.00;68.80;;;;;;4951854;28;20024;-63
2023/12/14 09:36:34;;;;;;;10.48;7.57;;;20.00;68.80;;;;;;4951764;28;20026;-63
2023/12/14 09:38:59;;;;;;;11.68;7.70;;;20.10;68.90;;;;;;4951114;28;20027;-63
2023/12/14 09:41:25;;;;;;;11.15;7.13;;;20.00;69.00;;;;;;4952158;28;20068;-64
2023/12/14 09:43:52;;;;;;;9.50;7.30;;;20.00;69.00;;;;;;4951676;28;20023;-63
2023/12/14 09:46:18;;;;;;;11.77;7.15;;;20.00;69.10;;;;;;4951654;28;20023;-63
2023/12/14 09:48:45;;;;;;;9.75;6.68;;;20.00;69.20;;;;;;4951907;28;20422;-62
2023/12/14 09:51:12;;;;;;;13.30;6.95;;;20.00;69.20;;;;;;4951413;28;20501;-63
2023/12/14 09:53:37;;;;;;;11.00;7.25;;;20.00;69.30;;;;;;4952263;28;20032;-64
2023/12/14 09:56:04;;;;;;;12.63;6.90;;;20.00;69.30;;;;;;4952769;28;20068;-64
2023/12/14 09:58:33;;;;;;;9.02;6.15;;;20.00;69.20;;;;;;4954012;28;20034;-64
2023/12/14 10:01:00;;;;;;;10.57;6.80;;;20.00;69.20;;;;;;4957953;28;20491;-63
2023/12/14 10:03:28;;;;;;;10.57;6.75;;;20.00;69.30;;;;;;4959487;28;20027;-64
2023/12/14 10:05:55;;;;;;;10.65;6.07;;;20.00;69.30;;;;;;4961396;28;20016;-64
2023/12/14 10:08:21;;;;;;;8.93;6.20;;;20.00;69.20;;;;;;4965990;28;20031;-64
2023/12/14 10:10:51;;;;;;;9.68;6.38;;;20.00;69.20;;;;;;4966073;28;20026;-64
2023/12/14 10:13:16;;;;;;;10.63;6.45;;;20.00;69.20;;;;;;4964913;28;20042;-64
2023/12/14 10:15:47;;;;;;;10.15;5.85;;;20.00;69.20;;;;;;4952429;28;20035;-64
2023/12/14 10:18:24;;;;;;;9.95;6.25;;;19.90;69.20;;;;;;4951836;28;20046;-64
2023/12/14 10:20:51;;;;;;;9.18;6.55;;;20.00;69.30;;;;;;4942848;28;20020;-65
2023/12/14 10:23:17;;;;;;;9.80;6.07;;;20.00;69.30;;;;;;4951657;28;20035;-65
2023/12/14 10:25:43;;;;;;;8.60;5.68;;;19.90;69.30;;;;;;4950497;28;20104;-64
2023/12/14 10:28:13;;;;;;;9.63;5.97;;;19.90;69.30;;;;;;4951632;28;20099;-63
2023/12/14 10:30:39;;;;;;;8.05;5.85;;;20.00;69.40;;;;;;4951260;28;20026;-63
2023/12/14 10:33:04;;;;;;;7.68;5.18;;;19.90;69.40;;;;;;4951317;28;20106;-63
2023/12/14 10:35:30;;;;;;;7.57;5.18;;;19.90;69.50;;;;;;4950819;28;20035;-64
2023/12/14 10:37:58;;;;;;;7.72;5.43;;;20.00;69.50;;;;;;4950348;28;20257;-63
2023/12/14 10:40:26;;;;;;;7.63;5.30;;;19.90;69.50;;;;;;4951282;28;20038;-64
2023/12/14 10:42:52;;;;;;;7.40;5.20;;;19.80;69.50;;;;;;4951750;28;20039;-63
2023/12/14 10:45:19;;;;;;;9.20;5.75;;;19.90;69.60;;;;;;4951314;28;20038;-64
2023/12/14 10:47:47;;;;;;;7.88;5.03;;;19.90;69.60;;;;;;4956005;28;20124;-64
2023/12/14 10:50:13;;;;;;;10.38;5.20;;;19.90;69.60;;;;;;4958484;28;20070;-64
2023/12/14 10:52:40;;;;;;;9.50;5.63;;;19.90;69.60;;;;;;4957227;28;20019;-64
2023/12/14 10:55:22;;;;;;;8.00;5.35;;;19.80;69.70;;;;;;4951228;28;20107;-59
2023/12/14 10:57:48;;;;;;;19.98;6.88;;;19.90;69.80;;;;;;4948638;28;20034;-59
2023/12/14 11:00:17;;;;;;;30.75;9.30;;;19.90;69.80;;;;;;4956301;28;20023;-60
2023/12/14 11:02:45;;;;;;;22.63;7.10;;;19.90;69.80;;;;;;4947922;28;20039;-60
2023/12/14 11:05:15;;;;;;;22.27;7.30;;;19.90;69.90;;;;;;4950365;28;20086;-59
2023/12/14 11:08:09;;;;;;;16.08;6.47;;;19.90;70.00;;;;;;4942657;28;20706;-60
2023/12/14 11:10:51;;;;;;;14.82;6.25;;;19.90;70.00;;;;;;4950470;28;20102;-60
2023/12/14 11:13:17;;;;;;;17.77;6.88;;;20.00;70.30;;;;;;4949160;28;20122;-59
2023/12/14 11:15:50;;;;;;;21.92;7.03;;;19.90;70.10;;;;;;4952306;28;20115;-61
2023/12/14 11:18:20;;;;;;;15.82;6.70;;;20.00;70.20;;;;;;4939963;28;20028;-60
2023/12/14 11:20:46;;;;;;;22.15;7.38;;;20.00;70.10;;;;;;4945707;28;20023;-60
2023/12/14 11:23:33;;;;;;;6.10;4.72;;;20.00;70.70;;;;;;4946813;28;20376;-60
2023/12/14 11:26:04;;;;;;;5.90;3.83;;;19.60;60.00;;;;;;4944768;28;20059;-57
2023/12/14 11:28:35;;;;;;;4.88;3.75;;;19.20;55.80;;;;;;4949294;28;20030;-60
2023/12/14 11:31:02;;;;;;;4.30;3.70;;;18.70;53.70;;;;;;4950365;28;20036;-60
2023/12/14 11:33:28;;;;;;;4.85;3.83;;;18.20;53.50;;;;;;4949980;28;20744;-59
2023/12/14 11:35:56;;;;;;;7.10;3.40;;;17.70;54.60;;;;;;4947927;28;20031;-59
2023/12/14 11:38:24;;;;;;;3.83;3.40;;;17.40;55.40;;;;;;4950051;28;20038;-60
2023/12/14 11:40:50;;;;;;;5.30;4.63;;;17.10;56.20;;;;;;4942588;28;20053;-59
2023/12/14 11:43:16;;;;;;;5.40;4.45;;;16.90;55.60;;;;;;4949836;28;20027;-59
2023/12/14 11:45:42;;;;;;;4.90;4.40;;;16.80;56.00;;;;;;4948897;28;20028;-59
2023/12/14 11:48:12;;;;;;;7.63;5.20;;;16.60;55.40;;;;;;4950253;28;20051;-58
2023/12/14 11:50:38;;;;;;;5.53;4.78;;;16.40;55.70;;;;;;4949624;28;20027;-59
2023/12/14 11:53:04;;;;;;;6.47;4.82;;;16.30;56.10;;;;;;4949761;28;20023;-57
2023/12/14 11:55:31;;;;;;;4.45;3.95;;;16.10;55.90;;;;;;4972293;28;20019;-63
2023/12/14 11:57:58;;;;;;;13.50;6.43;;;16.20;62.00;;;;;;4948783;28;20059;-61
2023/12/14 12:00:28;;;;;;;14.95;5.13;;;16.70;69.20;;;;;;4949346;28;20454;-62
2023/12/14 12:03:07;;;;;;;11.80;5.37;;;17.20;69.70;;;;;;4950545;28;20118;-63
2023/12/14 12:05:46;;;;;;;14.25;5.28;;;17.60;69.00;;;;;;4948811;28;20744;-63
2023/12/14 12:08:14;;;;;;;9.80;4.85;;;18.00;69.10;;;;;;4950349;28;20035;-62
2023/12/14 12:10:41;;;;;;;14.18;4.68;;;18.20;68.20;;;;;;4950713;28;20027;-63
2023/12/14 12:13:11;;;;;;;9.40;4.35;;;18.30;66.60;;;;;;4950251;28;20055;-62
2023/12/14 12:15:37;;;;;;;12.53;4.47;;;18.40;66.30;;;;;;4949845;28;20031;-63
2023/12/14 12:18:22;;;;;;;13.15;4.13;;;18.50;66.30;;;;;;4950405;28;20493;-63
2023/12/14 12:20:48;;;;;;;12.93;4.18;;;18.60;66.10;;;;;;4948725;28;20039;-63
2023/12/14 12:23:16;;;;;;;11.50;4.82;;;18.70;66.60;;;;;;4948517;28;20394;-64